Time;durP1;ratioP1;P1;durP2;ratioP2;P2;SDS_P1;SDS_P2;PMS_P1;PMS_P2;Temp;Humidity;BMP_temperature;BMP_pressure;BME280_temperature;BME280_humidity;BME280_pressure;Samples;Min_cycle;Max_cycle;Signal;HPM_P1;HPM_P2
2024/01/02 00:01:47;;;;;;;38.03;15.48;;;;;;;;;;5074553;28;20039;-74
2024/01/02 00:04:12;;;;;;;41.03;16.02;;;;;;;;;;5057001;28;20033;-74
2024/01/02 00:06:38;;;;;;;35.90;14.77;;;;;;;;;;5074740;28;20040;-74
2024/01/02 00:09:03;;;;;;;36.15;15.45;;;;;;;;;;5074891;28;20078;-73
2024/01/02 00:11:29;;;;;;;34.50;15.60;;;;;;;;;;5074397;28;20416;-73
2024/01/02 00:13:54;;;;;;;30.75;14.25;;;;;;;;;;5074654;28;20032;-74
2024/01/02 00:16:20;;;;;;;26.60;12.75;;;;;;;;;;5056753;28;20033;-71
2024/01/02 00:18:45;;;;;;;22.42;10.27;;;;;;;;;;5074026;28;20485;-74
2024/01/02 00:21:11;;;;;;;19.88;9.88;;;;;;;;;;5056117;28;20033;-73
2024/01/02 00:23:36;;;;;;;16.83;9.23;;;;;;;;;;5074205;28;20123;-73
2024/01/02 00:26:02;;;;;;;17.60;9.00;;;;;;;;;;5056093;28;20029;-73
2024/01/02 00:28:28;;;;;;;11.68;6.90;;;;;;;;;;5067656;23;20515;-71
2024/01/02 00:30:54;;;;;;;12.00;6.60;;;;;;;;;;5034202;28;20026;-71
2024/01/02 00:33:19;;;;;;;12.30;6.30;;;;;;;;;;5032810;28;20505;-72
2024/01/02 00:35:44;;;;;;;10.70;6.18;;;;;;;;;;5034035;28;20091;-70
2024/01/02 00:38:10;;;;;;;11.35;6.00;;;;;;;;;;5032967;28;20064;-70
2024/01/02 00:40:35;;;;;;;14.40;6.45;;;;;;;;;;5033970;28;20025;-70
2024/01/02 00:43:01;;;;;;;15.18;7.40;;;;;;;;;;5034104;28;20036;-70
2024/01/02 00:45:27;;;;;;;10.98;5.97;;;;;;;;;;5032533;28;20459;-67
2024/01/02 00:47:52;;;;;;;12.55;5.85;;;;;;;;;;5034219;28;20087;-66
2024/01/02 00:50:18;;;;;;;11.82;6.03;;;;;;;;;;5034022;28;20030;-65
2024/01/02 00:52:43;;;;;;;15.57;5.70;;;;;;;;;;5032440;28;20459;-65
2024/01/02 00:55:09;;;;;;;13.90;5.72;;;;;;;;;;5032354;28;20044;-66
2024/01/02 00:57:35;;;;;;;11.50;5.97;;;;;;;;;;5032400;28;20025;-69
2024/01/02 01:00:00;;;;;;;12.20;5.85;;;;;;;;;;5033871;28;20102;-68
2024/01/02 01:02:26;;;;;;;9.77;5.68;;;;;;;;;;5033596;28;20028;-68
2024/01/02 01:04:51;;;;;;;10.55;6.03;;;;;;;;;;5033828;28;20017;-69
2024/01/02 01:07:17;;;;;;;13.88;5.90;;;;;;;;;;5032318;28;20431;-70
2024/01/02 01:09:42;;;;;;;11.20;6.25;;;;;;;;;;5034030;28;20467;-72
2024/01/02 01:12:08;;;;;;;9.98;5.32;;;;;;;;;;5033760;28;20108;-72
2024/01/02 01:14:34;;;;;;;11.23;5.50;;;;;;;;;;5047686;23;20136;-72
2024/01/02 01:16:59;;;;;;;10.90;5.60;;;;;;;;;;5016099;28;20037;-72
2024/01/02 01:19:25;;;;;;;8.77;5.40;;;;;;;;;;5032709;28;20033;-72
2024/01/02 01:21:51;;;;;;;8.02;5.18;;;;;;;;;;5033616;28;20067;-69
2024/01/02 01:24:17;;;;;;;8.15;4.75;;;;;;;;;;5032118;28;20038;-66
2024/01/02 01:26:42;;;;;;;12.35;5.85;;;;;;;;;;5033420;28;20033;-66
2024/01/02 01:29:07;;;;;;;9.82;5.40;;;;;;;;;;5033539;28;20064;-66
2024/01/02 01:31:33;;;;;;;9.43;5.22;;;;;;;;;;5032475;28;20010;-65
2024/01/02 01:33:58;;;;;;;6.15;3.47;;;;;;;;;;5033465;28;20056;-65
2024/01/02 01:36:23;;;;;;;8.52;4.55;;;;;;;;;;5033638;28;20463;-66
2024/01/02 01:38:49;;;;;;;7.25;4.38;;;;;;;;;;5033530;28;20033;-65
2024/01/02 01:41:14;;;;;;;6.55;4.25;;;;;;;;;;5032789;28;20030;-70
2024/01/02 01:43:40;;;;;;;6.25;3.97;;;;;;;;;;5035763;28;20037;-70
2024/01/02 01:46:05;;;;;;;6.35;3.97;;;;;;;;;;5037498;28;20023;-70
2024/01/02 01:48:31;;;;;;;6.53;3.97;;;;;;;;;;5019139;28;20442;-70
2024/01/02 01:50:56;;;;;;;7.25;4.20;;;;;;;;;;5036897;28;20076;-70
2024/01/02 01:53:22;;;;;;;7.97;4.28;;;;;;;;;;5036043;28;20022;-73
2024/01/02 01:55:48;;;;;;;6.95;3.80;;;;;;;;;;5037339;28;20030;-73
2024/01/02 01:58:13;;;;;;;5.72;3.72;;;;;;;;;;5035547;28;20038;-73
2024/01/02 02:00:39;;;;;;;5.50;3.70;;;;;;;;;;5019027;28;20025;-73
2024/01/02 02:03:04;;;;;;;6.13;3.80;;;;;;;;;;5035398;28;20064;-73
2024/01/02 02:05:30;;;;;;;7.22;4.50;;;;;;;;;;5036401;28;20083;-74
2024/01/02 02:07:55;;;;;;;10.15;4.97;;;;;;;;;;5036215;28;20033;-74
2024/01/02 02:10:21;;;;;;;8.07;4.60;;;;;;;;;;5036542;28;20028;-74
2024/01/02 02:12:46;;;;;;;8.82;5.82;;;;;;;;;;5035242;28;20067;-74
2024/01/02 02:15:12;;;;;;;9.73;5.85;;;;;;;;;;5050273;28;20041;-74
2024/01/02 02:17:37;;;;;;;7.00;4.68;;;;;;;;;;5055639;28;20028;-74
2024/01/02 02:20:03;;;;;;;7.70;4.75;;;;;;;;;;5053881;28;20367;-74
2024/01/02 02:25:14;;;;;;;10.00;5.13;;;;;;;;;;5082655;23;20063;-74
2024/01/02 02:27:41;;;;;;;6.78;4.90;;;;;;;;;;5088519;22;20063;-74
2024/01/02 02:30:07;;;;;;;5.95;4.03;;;;;;;;;;5089373;22;20568;-68
2024/01/02 02:32:32;;;;;;;6.57;3.75;;;;;;;;;;5076336;28;20025;-68
2024/01/02 02:34:58;;;;;;;6.03;4.20;;;;;;;;;;5076082;28;20039;-68
2024/01/02 02:37:23;;;;;;;7.72;3.80;;;;;;;;;;5075992;28;20036;-70
2024/01/02 02:39:49;;;;;;;6.22;3.65;;;;;;;;;;5074910;28;20039;-70
2024/01/02 02:42:14;;;;;;;6.60;3.80;;;;;;;;;;5058336;28;20433;-70
2024/01/02 02:44:42;;;;;;;8.27;4.55;;;;;;;;;;5074838;28;20036;-70
2024/01/02 02:47:08;;;;;;;6.88;4.13;;;;;;;;;;5076077;28;20033;-69
2024/01/02 02:49:33;;;;;;;6.55;4.38;;;;;;;;;;5075716;28;20108;-69
2024/01/02 02:51:59;;;;;;;6.28;4.13;;;;;;;;;;5057649;28;20506;-69
2024/01/02 02:54:24;;;;;;;4.45;3.70;;;;;;;;;;5057053;28;20450;-70
2024/01/02 02:56:50;;;;;;;5.13;3.40;;;;;;;;;;5074413;28;20024;-69
2024/01/02 02:59:15;;;;;;;4.35;3.42;;;;;;;;;;5076107;28;20032;-69
2024/01/02 03:01:42;;;;;;;7.05;3.60;;;;;;;;;;5075888;28;20032;-69
2024/01/02 03:04:07;;;;;;;7.53;4.05;;;;;;;;;;5040946;28;20413;-69
2024/01/02 03:06:33;;;;;;;7.43;3.78;;;;;;;;;;5075465;28;20033;-70
2024/01/02 03:08:58;;;;;;;6.72;3.50;;;;;;;;;;5075595;28;20024;-72
2024/01/02 03:11:23;;;;;;;8.27;3.70;;;;;;;;;;5075304;28;20100;-73
2024/01/02 03:13:49;;;;;;;5.95;3.70;;;;;;;;;;5075587;28;20024;-72
2024/01/02 03:16:15;;;;;;;7.10;3.70;;;;;;;;;;5075230;28;20025;-72
2024/01/02 03:18:41;;;;;;;5.93;3.58;;;;;;;;;;5075769;28;20036;-72
2024/01/02 03:21:10;;;;;;;6.70;4.32;;;;;;;;;;5074536;28;20081;-72
2024/01/02 03:23:36;;;;;;;8.15;3.78;;;;;;;;;;5057149;28;20111;-72
2024/01/02 03:26:02;;;;;;;5.40;3.53;;;;;;;;;;5075098;28;20063;-73
2024/01/02 03:28:27;;;;;;;5.80;3.80;;;;;;;;;;5075193;28;20028;-73
2024/01/02 03:30:52;;;;;;;8.23;4.43;;;;;;;;;;5057038;28;20127;-72
2024/01/02 03:33:19;;;;;;;4.88;3.65;;;;;;;;;;5074013;28;20025;-72
2024/01/02 03:35:44;;;;;;;7.22;4.03;;;;;;;;;;5057312;28;20021;-72
2024/01/02 03:38:10;;;;;;;8.10;4.40;;;;;;;;;;5056947;28;20068;-73
2024/01/02 03:40:35;;;;;;;6.50;3.53;;;;;;;;;;5057317;28;20081;-72
2024/01/02 03:43:00;;;;;;;4.47;3.65;;;;;;;;;;5075450;28;20033;-68
2024/01/02 03:45:26;;;;;;;5.63;4.18;;;;;;;;;;5074824;28;20033;-73
2024/01/02 03:47:51;;;;;;;6.10;4.25;;;;;;;;;;5074822;28;20082;-72
2024/01/02 03:50:17;;;;;;;7.68;3.92;;;;;;;;;;5073277;28;20080;-72
2024/01/02 03:52:42;;;;;;;5.90;3.95;;;;;;;;;;5075039;28;20474;-72
2024/01/02 03:55:08;;;;;;;6.03;3.75;;;;;;;;;;5074285;28;20425;-72
2024/01/02 03:57:34;;;;;;;4.68;3.55;;;;;;;;;;5074662;28;20056;-72
2024/01/02 03:59:59;;;;;;;6.20;3.42;;;;;;;;;;5056805;28;20036;-72
2024/01/02 04:02:25;;;;;;;4.95;3.83;;;;;;;;;;5074517;28;20032;-71
2024/01/02 04:04:50;;;;;;;3.78;3.40;;;;;;;;;;5074492;28;20024;-71
2024/01/02 04:07:15;;;;;;;5.30;3.80;;;;;;;;;;5074761;28;20025;-71
2024/01/02 04:09:41;;;;;;;5.60;3.85;;;;;;;;;;5074084;28;20488;-71
2024/01/02 04:12:07;;;;;;;7.15;4.43;;;;;;;;;;5074410;28;20060;-72
2024/01/02 04:14:33;;;;;;;6.60;3.80;;;;;;;;;;5088053;22;20080;-71
2024/01/02 04:16:59;;;;;;;5.63;4.15;;;;;;;;;;5073318;28;20024;-72
2024/01/02 04:19:24;;;;;;;4.15;3.38;;;;;;;;;;5071729;28;20032;-71
2024/01/02 04:21:50;;;;;;;6.88;3.47;;;;;;;;;;5056067;28;20036;-71
2024/01/02 04:24:15;;;;;;;6.15;3.50;;;;;;;;;;5074158;28;20159;-72
2024/01/02 04:26:40;;;;;;;5.95;3.83;;;;;;;;;;5074182;28;20040;-71
2024/01/02 04:29:06;;;;;;;3.22;2.67;;;;;;;;;;5074101;28;20037;-71
2024/01/02 04:31:31;;;;;;;5.05;3.47;;;;;;;;;;5073841;28;20028;-73
2024/01/02 04:33:56;;;;;;;3.58;3.05;;;;;;;;;;5074121;28;20540;-72
2024/01/02 04:36:25;;;;;;;5.10;2.92;;;;;;;;;;5073995;28;20024;-73
2024/01/02 04:38:51;;;;;;;5.47;3.08;;;;;;;;;;5074355;28;20037;-73
2024/01/02 04:41:16;;;;;;;3.83;3.15;;;;;;;;;;5073812;28;20027;-72
2024/01/02 04:43:42;;;;;;;5.03;3.17;;;;;;;;;;5055938;28;20068;-70
2024/01/02 04:46:07;;;;;;;4.72;2.28;;;;;;;;;;5073719;28;20408;-70
2024/01/02 04:48:32;;;;;;;4.80;2.95;;;;;;;;;;5055975;28;20029;-70
2024/01/02 04:50:58;;;;;;;5.00;2.85;;;;;;;;;;5073627;28;20103;-70
2024/01/02 04:53:24;;;;;;;4.53;2.60;;;;;;;;;;5073059;28;20381;-70
2024/01/02 04:55:49;;;;;;;3.83;2.55;;;;;;;;;;5056338;28;20032;-70
2024/01/02 04:58:14;;;;;;;3.47;2.70;;;;;;;;;;5074147;28;20457;-70
2024/01/02 05:00:40;;;;;;;4.90;3.28;;;;;;;;;;5073865;28;20032;-68
2024/01/02 05:03:05;;;;;;;6.10;3.35;;;;;;;;;;5073824;28;20017;-68
2024/01/02 05:05:31;;;;;;;5.18;3.28;;;;;;;;;;5073672;28;20028;-69
2024/01/02 05:07:56;;;;;;;4.78;3.15;;;;;;;;;;5055487;28;20470;-69
2024/01/02 05:10:22;;;;;;;4.50;2.83;;;;;;;;;;5073473;28;20016;-70
2024/01/02 05:12:50;;;;;;;6.72;3.03;;;;;;;;;;5072199;28;20028;-72
2024/01/02 05:15:15;;;;;;;5.05;3.20;;;;;;;;;;5073048;28;20040;-72
2024/01/02 05:17:41;;;;;;;4.30;2.97;;;;;;;;;;5076403;28;20381;-72
2024/01/02 05:20:06;;;;;;;3.80;2.97;;;;;;;;;;5077914;28;20029;-71
2024/01/02 05:22:32;;;;;;;4.88;3.08;;;;;;;;;;5059477;28;20124;-72
2024/01/02 05:24:57;;;;;;;4.03;3.35;;;;;;;;;;5077549;28;20036;-72
2024/01/02 05:27:23;;;;;;;5.13;3.47;;;;;;;;;;5059782;28;20107;-73
2024/01/02 05:29:48;;;;;;;4.88;3.70;;;;;;;;;;5077468;28;20069;-74
2024/01/02 05:32:13;;;;;;;6.28;4.15;;;;;;;;;;5077227;28;20040;-70
2024/01/02 05:34:39;;;;;;;7.15;3.90;;;;;;;;;;5077659;28;20466;-64
2024/01/02 05:37:04;;;;;;;4.43;3.15;;;;;;;;;;5042592;28;20025;-65
2024/01/02 05:39:30;;;;;;;4.28;3.28;;;;;;;;;;5059825;28;20527;-64
2024/01/02 05:41:55;;;;;;;4.30;3.20;;;;;;;;;;5059304;28;20056;-64
2024/01/02 05:44:20;;;;;;;6.20;3.30;;;;;;;;;;5077413;28;20063;-65
2024/01/02 05:46:46;;;;;;;8.52;3.20;;;;;;;;;;5077263;28;20032;-64
2024/01/02 05:49:11;;;;;;;5.55;3.63;;;;;;;;;;5077473;28;20028;-64
2024/01/02 05:51:37;;;;;;;5.10;3.35;;;;;;;;;;5076522;28;20030;-66
2024/01/02 05:54:02;;;;;;;6.45;3.45;;;;;;;;;;5076400;28;20028;-66
2024/01/02 05:56:28;;;;;;;6.18;3.42;;;;;;;;;;5058814;28;20024;-66
2024/01/02 05:58:53;;;;;;;4.72;3.78;;;;;;;;;;5058625;28;20270;-65
2024/01/02 06:01:19;;;;;;;8.10;3.92;;;;;;;;;;5076655;28;20070;-66
2024/01/02 06:03:44;;;;;;;5.35;3.60;;;;;;;;;;5076926;28;20040;-67
2024/01/02 06:06:10;;;;;;;6.25;3.83;;;;;;;;;;5076605;28;20119;-67
2024/01/02 06:08:35;;;;;;;4.93;3.28;;;;;;;;;;5076486;28;20025;-67
2024/01/02 06:11:00;;;;;;;5.90;3.85;;;;;;;;;;5076494;28;20021;-74
2024/01/02 06:13:27;;;;;;;6.93;4.10;;;;;;;;;;5076209;28;20028;-68
2024/01/02 06:15:53;;;;;;;7.28;4.20;;;;;;;;;;5076659;28;20021;-68
2024/01/02 06:18:18;;;;;;;5.40;3.85;;;;;;;;;;5076236;28;20389;-64
2024/01/02 06:20:43;;;;;;;5.78;4.45;;;;;;;;;;5041775;28;20501;-64
2024/01/02 06:23:09;;;;;;;5.88;5.00;;;;;;;;;;5076555;28;20036;-65
2024/01/02 06:25:34;;;;;;;10.52;6.00;;;;;;;;;;5076599;28;20021;-64
2024/01/02 06:28:00;;;;;;;12.85;6.88;;;;;;;;;;5076218;28;20378;-64
2024/01/02 06:30:25;;;;;;;10.18;6.32;;;;;;;;;;5076441;28;20024;-64
2024/01/02 06:32:51;;;;;;;9.65;6.25;;;;;;;;;;5075952;28;20020;-64
2024/01/02 06:35:17;;;;;;;10.52;6.38;;;;;;;;;;5089420;22;20458;-75
2024/01/02 06:37:42;;;;;;;7.63;5.50;;;;;;;;;;5076226;28;20104;-75
2024/01/02 06:40:09;;;;;;;8.65;5.20;;;;;;;;;;5076520;28;20052;-75
2024/01/02 06:42:35;;;;;;;6.68;4.18;;;;;;;;;;5076328;28;20362;-75
2024/01/02 06:45:00;;;;;;;6.13;4.20;;;;;;;;;;5075870;28;20025;-75
2024/01/02 06:47:25;;;;;;;10.85;6.03;;;;;;;;;;5076323;28;20029;-75
2024/01/02 06:49:51;;;;;;;14.13;6.80;;;;;;;;;;5057736;28;20025;-75
2024/01/02 06:52:16;;;;;;;12.35;6.53;;;;;;;;;;5076214;28;20058;-74
2024/01/02 06:54:41;;;;;;;9.48;5.57;;;;;;;;;;5075678;28;20029;-74
2024/01/02 06:57:08;;;;;;;8.80;5.45;;;;;;;;;;5076167;28;20020;-74
2024/01/02 06:59:33;;;;;;;8.48;5.82;;;;;;;;;;5075885;28;20059;-74
2024/01/02 07:01:58;;;;;;;10.48;6.57;;;;;;;;;;5058093;28;20032;-73
2024/01/02 07:04:24;;;;;;;11.68;6.40;;;;;;;;;;5074650;28;20032;-74
2024/01/02 07:06:50;;;;;;;12.10;6.50;;;;;;;;;;5075458;28;20020;-69
2024/01/02 07:09:15;;;;;;;9.23;5.20;;;;;;;;;;5075859;28;20028;-74
2024/01/02 07:11:40;;;;;;;11.13;5.53;;;;;;;;;;5075393;28;20037;-73
2024/01/02 07:14:06;;;;;;;8.70;5.33;;;;;;;;;;5050007;22;1117858;-63
2024/01/02 07:16:36;;;;;;;9.65;5.22;;;;;;;;;;5084765;23;20303;-74
2024/01/02 07:19:03;;;;;;;11.15;5.70;;;;;;;;;;5069046;23;20060;-73
2024/01/02 07:21:28;;;;;;;9.80;5.50;;;;;;;;;;5055194;28;20025;-75
2024/01/02 07:23:59;;;;;;;9.30;4.57;;;;;;;;;;5055287;28;20151;-75
2024/01/02 07:26:24;;;;;;;10.70;5.47;;;;;;;;;;5037758;28;20059;-75
2024/01/02 07:28:50;;;;;;;27.95;14.68;;;;;;;;;;5054930;28;20053;-75
2024/01/02 07:31:15;;;;;;;34.22;18.05;;;;;;;;;;5036695;28;20423;-74
2024/01/02 07:33:41;;;;;;;39.10;20.85;;;;;;;;;;5054712;28;20045;-74
2024/01/02 07:36:06;;;;;;;34.90;17.75;;;;;;;;;;5054676;28;20021;-74
2024/01/02 07:38:55;;;;;;;26.08;13.38;;;;;;;;;;5054733;28;20020;-74
2024/01/02 07:41:20;;;;;;;15.85;8.73;;;;;;;;;;5054969;28;20112;-74
2024/01/02 07:43:46;;;;;;;16.13;9.20;;;;;;;;;;5054700;28;20562;-74
2024/01/02 07:46:11;;;;;;;15.32;8.02;;;;;;;;;;5054915;28;20032;-75
2024/01/02 07:48:37;;;;;;;14.15;7.97;;;;;;;;;;5054424;28;20043;-74
2024/01/02 07:51:03;;;;;;;12.90;7.68;;;;;;;;;;5054654;28;20033;-75
2024/01/02 07:53:28;;;;;;;13.80;7.63;;;;;;;;;;5052065;28;20033;-64
2024/01/02 07:55:53;;;;;;;18.17;10.35;;;;;;;;;;5045627;28;20380;-76
2024/01/02 07:58:19;;;;;;;35.15;15.50;;;;;;;;;;5034671;28;20033;-75
2024/01/02 08:00:44;;;;;;;34.20;17.13;;;;;;;;;;5034857;28;20075;-75
2024/01/02 08:03:10;;;;;;;34.50;16.13;;;;;;;;;;5034363;28;20510;-75
2024/01/02 08:05:35;;;;;;;31.08;14.00;;;;;;;;;;5034979;28;20097;-75
2024/01/02 08:08:02;;;;;;;27.08;13.35;;;;;;;;;;5034551;28;20033;-75
2024/01/02 08:10:27;;;;;;;25.55;12.25;;;;;;;;;;5034748;28;20068;-75
2024/01/02 08:12:53;;;;;;;23.80;11.30;;;;;;;;;;5034282;28;20103;-75
2024/01/02 08:15:18;;;;;;;17.40;7.90;;;;;;;;;;5034571;28;20095;-75
2024/01/02 08:17:44;;;;;;;13.07;7.07;;;;;;;;;;5033089;28;20443;-75
2024/01/02 08:20:10;;;;;;;10.30;6.05;;;;;;;;;;5051895;28;20052;-75
2024/01/02 08:22:35;;;;;;;16.50;7.90;;;;;;;;;;5052296;28;20033;-75
2024/01/02 08:25:01;;;;;;;11.25;6.38;;;;;;;;;;5052610;28;20028;-75
2024/01/02 08:27:26;;;;;;;20.20;11.40;;;;;;;;;;5052131;28;20029;-75
2024/01/02 08:29:52;;;;;;;19.02;10.85;;;;;;;;;;5050427;28;20391;-75
2024/01/02 08:32:20;;;;;;;14.07;8.68;;;;;;;;;;5050086;28;20063;-75
2024/01/02 08:34:45;;;;;;;15.60;8.40;;;;;;;;;;5050224;28;20115;-75
2024/01/02 08:37:10;;;;;;;11.82;6.82;;;;;;;;;;5050632;28;20107;-75
2024/01/02 08:39:36;;;;;;;9.13;5.15;;;;;;;;;;5050651;28;20037;-75
2024/01/02 08:42:02;;;;;;;10.63;6.22;;;;;;;;;;5051287;28;20025;-74
2024/01/02 08:44:27;;;;;;;19.40;8.63;;;;;;;;;;5052170;28;20502;-65
2024/01/02 08:47:00;;;;;;;14.60;8.20;;;;;;;;;;5053549;28;20116;-74
2024/01/02 08:49:25;;;;;;;10.35;6.07;;;;;;;;;;5053896;28;20043;-74
2024/01/02 08:51:51;;;;;;;6.53;4.63;;;;;;;;;;5036059;28;20033;-74
2024/01/02 08:54:16;;;;;;;8.93;4.40;;;;;;;;;;5035826;28;20108;-74
2024/01/02 08:56:42;;;;;;;7.88;4.10;;;;;;;;;;5053856;28;20432;-75
2024/01/02 08:59:07;;;;;;;8.10;4.45;;;;;;;;;;5053550;28;20040;-75
2024/01/02 09:01:33;;;;;;;4.85;4.10;;;;;;;;;;5053494;28;20033;-74
2024/01/02 09:03:58;;;;;;;7.93;4.05;;;;;;;;;;5053799;28;20482;-75
2024/01/02 09:06:24;;;;;;;7.57;3.60;;;;;;;;;;5053537;28;20411;-75
2024/01/02 09:08:50;;;;;;;9.18;3.95;;;;;;;;;;5053420;28;20040;-75
2024/01/02 09:11:15;;;;;;;7.45;3.85;;;;;;;;;;5053774;28;20021;-74
2024/01/02 09:13:41;;;;;;;10.23;4.38;;;;;;;;;;5035554;28;20032;-74
2024/01/02 09:16:06;;;;;;;11.40;5.90;;;;;;;;;;5035624;28;20496;-75
2024/01/02 09:18:32;;;;;;;11.23;5.43;;;;;;;;;;5053851;28;20482;-75
2024/01/02 09:20:57;;;;;;;10.25;5.68;;;;;;;;;;5035915;28;20045;-75
2024/01/02 09:23:23;;;;;;;11.75;5.00;;;;;;;;;;5053331;28;20061;-75
2024/01/02 09:25:49;;;;;;;7.65;3.90;;;;;;;;;;5053311;28;20064;-75
2024/01/02 09:28:15;;;;;;;8.30;4.20;;;;;;;;;;5035809;28;20104;-75
2024/01/02 09:30:40;;;;;;;8.82;5.18;;;;;;;;;;5035484;28;20431;-75
2024/01/02 09:33:07;;;;;;;8.80;3.95;;;;;;;;;;5053262;28;20029;-75
2024/01/02 09:35:32;;;;;;;5.43;3.15;;;;;;;;;;5053548;28;20351;-75
2024/01/02 09:37:58;;;;;;;4.88;3.13;;;;;;;;;;5053213;28;20055;-75
2024/01/02 09:40:29;;;;;;;6.53;3.17;;;;;;;;;;5053439;28;20453;-75
2024/01/02 09:43:13;;;;;;;6.85;3.20;;;;;;;;;;5053462;28;20025;-75
2024/01/02 09:45:44;;;;;;;4.50;2.88;;;;;;;;;;5035236;28;20029;-74
2024/01/02 09:48:09;;;;;;;;;;;;;;;;;;5053762;28;20036;-75
2024/01/02 09:50:53;;;;;;;5.78;3.05;;;;;;;;;;5053670;28;20258;-75
2024/01/02 09:53:19;;;;;;;5.97;3.25;;;;;;;;;;5053317;28;20033;-75
2024/01/02 09:55:50;;;;;;;8.80;3.97;;;;;;;;;;5018761;28;20467;-75
2024/01/02 09:58:34;;;;;;;6.05;3.63;;;;;;;;;;5053260;28;20086;-74
2024/01/02 10:01:22;;;;;;;5.22;3.17;;;;;;;;;;5035503;28;20029;-75
2024/01/02 10:04:03;;;;;;;6.47;3.42;;;;;;;;;;5072879;23;20044;-65
2024/01/02 10:06:28;;;;;;;5.13;3.47;;;;;;;;;;5075831;28;20032;-75
2024/01/02 10:08:54;;;;;;;6.65;3.42;;;;;;;;;;5076284;28;20037;-75
2024/01/02 10:11:33;;;;;;;8.27;3.95;;;;;;;;;;5075631;28;20025;-75
2024/01/02 10:14:09;;;;;;;11.48;7.63;;;;;;;;;;5059097;28;20598;-75
2024/01/02 10:20:04;;;;;;;5.53;3.28;;;;;;;;;;5034014;28;20075;-75
2024/01/02 10:22:45;;;;;;;5.18;2.53;;;;;;;;;;5036411;28;20511;-75
2024/01/02 10:25:13;;;;;;;4.70;2.65;;;;;;;;;;5002087;28;20116;-75
2024/01/02 10:27:48;;;;;;;6.72;3.13;;;;;;;;;;5018666;28;20033;-75
2024/01/02 10:30:17;;;;;;;6.75;3.03;;;;;;;;;;5036998;28;20033;-75
2024/01/02 10:33:02;;;;;;;4.80;3.28;;;;;;;;;;5036128;28;20029;-75
2024/01/02 10:35:43;;;;;;;8.50;3.72;;;;;;;;;;5036782;28;20030;-75
2024/01/02 10:38:08;;;;;;;;;;;;;;;;;;5036350;28;20029;-75
2024/01/02 10:40:36;;;;;;;5.63;3.35;;;;;;;;;;5029718;28;20255;-75
2024/01/02 10:43:01;;;;;;;8.95;3.08;;;;;;;;;;5016056;28;20076;-75
2024/01/02 10:45:29;;;;;;;6.75;3.40;;;;;;;;;;5034153;28;20025;-75
2024/01/02 10:48:12;;;;;;;6.05;3.08;;;;;;;;;;5033754;28;20487;-75
2024/01/02 10:50:58;;;;;;;6.90;3.10;;;;;;;;;;5034116;28;20025;-76
2024/01/02 10:53:33;;;;;;;7.55;3.25;;;;;;;;;;5033853;28;20056;-75
2024/01/02 10:56:08;;;;;;;5.32;3.10;;;;;;;;;;5032501;28;20064;-76
2024/01/02 10:58:36;;;;;;;5.78;3.05;;;;;;;;;;5033092;28;20567;-75
2024/01/02 11:01:06;;;;;;;4.88;2.80;;;;;;;;;;5032659;28;20071;-75
2024/01/02 11:03:34;;;;;;;4.67;3.10;;;;;;;;;;5032272;28;20037;-75
2024/01/02 11:06:04;;;;;;;7.50;3.28;;;;;;;;;;5015205;28;20275;-75
2024/01/02 11:08:43;;;;;;;9.27;4.40;;;;;;;;;;5030898;28;20120;-75
2024/01/02 11:11:09;;;;;;;8.27;3.38;;;;;;;;;;5032262;28;20061;-75
2024/01/02 11:13:38;;;;;;;7.65;3.53;;;;;;;;;;5013926;28;20424;-75
2024/01/02 11:16:07;;;;;;;7.05;3.17;;;;;;;;;;5032428;28;20036;-75
2024/01/02 11:18:33;;;;;;;5.97;3.17;;;;;;;;;;5017743;28;20159;-76
2024/01/02 11:21:18;;;;;;;7.43;3.97;;;;;;;;;;5030453;28;20045;-66
2024/01/02 11:23:46;;;;;;;7.68;3.65;;;;;;;;;;5013052;28;20041;-72
2024/01/02 11:26:19;;;;;;;8.52;4.47;;;;;;;;;;5030831;28;20430;-56
2024/01/02 11:28:46;;;;;;;12.65;7.63;;;;;;;;;;5029850;28;20068;-56
2024/01/02 11:31:12;;;;;;;7.45;3.53;;;;;;;;;;5030234;28;20025;-58
2024/01/02 11:33:44;;;;;;;6.40;3.47;;;;;;;;;;5032242;28;20519;-65
2024/01/02 11:36:22;;;;;;;11.43;5.90;;;;;;;;;;5029919;28;20379;-62
2024/01/02 11:38:56;;;;;;;12.32;5.68;;;;;;;;;;5029075;28;20065;-69
2024/01/02 11:41:28;;;;;;;36.78;18.60;;;;;;;;;;5030444;28;20527;-62
2024/01/02 11:43:59;;;;;;;23.30;12.98;;;;;;;;;;5032065;28;20037;-64
2024/01/02 11:46:25;;;;;;;12.63;6.57;;;;;;;;;;5030515;28;20065;-75
2024/01/02 11:48:54;;;;;;;24.58;13.52;;;;;;;;;;5030017;28;20429;-73
2024/01/02 11:51:21;;;;;;;16.17;7.47;;;;;;;;;;5032255;28;20084;-74
2024/01/02 11:54:06;;;;;;;15.32;10.20;;;;;;;;;;5028876;28;20383;-67
2024/01/02 11:56:31;;;;;;;10.85;5.65;;;;;;;;;;5028088;28;20025;-74
2024/01/02 11:59:04;;;;;;;10.32;6.78;;;;;;;;;;5029904;28;20033;-75
2024/01/02 12:01:29;;;;;;;10.57;6.30;;;;;;;;;;5028005;28;20037;-73
2024/01/02 12:04:22;;;;;;;10.00;4.97;;;;;;;;;;5032325;28;20068;-75
2024/01/02 12:07:06;;;;;;;11.80;6.90;;;;;;;;;;5031862;28;20045;-73
2024/01/02 12:09:36;;;;;;;12.45;7.25;;;;;;;;;;5030824;28;20466;-72
2024/01/02 12:12:15;;;;;;;12.10;7.80;;;;;;;;;;5032683;28;20029;-74
2024/01/02 12:14:51;;;;;;;10.13;5.40;;;;;;;;;;5032461;28;20029;-73
2024/01/02 12:17:20;;;;;;;8.20;4.82;;;;;;;;;;5033973;28;20105;-73
2024/01/02 12:19:47;;;;;;;10.52;7.00;;;;;;;;;;5032777;28;20455;-73
2024/01/02 12:22:12;;;;;;;15.77;9.55;;;;;;;;;;5030925;28;20044;-71
2024/01/02 12:24:38;;;;;;;19.27;10.32;;;;;;;;;;5030913;28;20029;-72
2024/01/02 12:27:05;;;;;;;21.33;11.52;;;;;;;;;;5030067;28;20061;-74
2024/01/02 12:29:38;;;;;;;27.95;13.82;;;;;;;;;;5031712;28;20471;-73
2024/01/02 12:32:12;;;;;;;32.67;14.38;;;;;;;;;;5012318;28;20513;-72
2024/01/02 12:34:43;;;;;;;32.28;16.13;;;;;;;;;;5030448;28;20041;-73
2024/01/02 12:37:14;;;;;;;35.88;18.30;;;;;;;;;;5029591;28;20049;-69
2024/01/02 12:39:42;;;;;;;33.60;15.57;;;;;;;;;;5014081;28;20091;-63
2024/01/02 12:42:11;;;;;;;28.88;13.30;;;;;;;;;;5014128;28;20087;-66
2024/01/02 12:44:40;;;;;;;35.13;16.75;;;;;;;;;;5012273;28;20035;-66
2024/01/02 12:47:08;;;;;;;32.25;14.27;;;;;;;;;;5030038;28;20321;-66
2024/01/02 12:49:40;;;;;;;18.45;9.65;;;;;;;;;;5011689;28;20025;-66
2024/01/02 12:52:06;;;;;;;25.08;11.07;;;;;;;;;;5029849;28;20140;-66
2024/01/02 12:54:35;;;;;;;39.70;17.15;;;;;;;;;;5012078;28;20038;-66
2024/01/02 12:57:01;;;;;;;60.75;26.38;;;;;;;;;;5029970;28;20033;-66
2024/01/02 12:59:28;;;;;;;76.75;31.27;;;;;;;;;;5029542;28;20075;-66
2024/01/02 13:01:54;;;;;;;48.80;20.58;;;;;;;;;;5030813;28;20037;-66
2024/01/02 13:04:21;;;;;;;49.38;21.85;;;;;;;;;;5015620;28;20437;-66
2024/01/02 13:06:46;;;;;;;50.92;20.33;;;;;;;;;;5033754;28;20468;-66
2024/01/02 13:09:15;;;;;;;55.28;20.52;;;;;;;;;;5033472;28;20040;-66
2024/01/02 13:11:40;;;;;;;59.38;22.45;;;;;;;;;;5033334;28;20380;-66
2024/01/02 13:14:07;;;;;;;46.00;18.30;;;;;;;;;;5015001;28;20025;-66
2024/01/02 13:16:33;;;;;;;25.40;10.85;;;;;;;;;;5032494;28;20030;-66
2024/01/02 13:18:58;;;;;;;23.42;11.95;;;;;;;;;;5024901;28;20041;-66
2024/01/02 13:21:24;;;;;;;18.88;9.93;;;;;;;;;;5032311;28;20064;-66
2024/01/02 13:23:53;;;;;;;25.95;13.30;;;;;;;;;;5031579;28;20080;-66
2024/01/02 13:26:18;;;;;;;27.67;14.55;;;;;;;;;;5030749;28;20076;-66
2024/01/02 13:28:47;;;;;;;21.40;10.10;;;;;;;;;;5029935;28;20065;-66
2024/01/02 13:31:12;;;;;;;23.70;12.52;;;;;;;;;;5029814;28;20022;-66
2024/01/02 13:33:42;;;;;;;13.63;7.03;;;;;;;;;;5029555;28;20018;-66
2024/01/02 13:36:08;;;;;;;15.23;8.52;;;;;;;;;;5029985;28;20036;-66
2024/01/02 13:38:40;;;;;;;17.98;8.52;;;;;;;;;;5033427;28;20026;-66
2024/01/02 13:41:06;;;;;;;13.48;7.65;;;;;;;;;;5034962;28;20091;-66
2024/01/02 13:43:35;;;;;;;26.70;12.15;;;;;;;;;;5033702;28;20037;-66
2024/01/02 13:46:10;;;;;;;27.15;13.43;;;;;;;;;;5035666;28;20116;-66
2024/01/02 13:48:37;;;;;;;38.15;16.50;;;;;;;;;;5034732;28;20036;-66
2024/01/02 13:51:03;;;;;;;50.65;25.55;;;;;;;;;;5035705;28;20053;-67
2024/01/02 13:53:28;;;;;;;51.58;24.10;;;;;;;;;;5037540;28;20083;-66
2024/01/02 13:55:54;;;;;;;26.42;12.77;;;;;;;;;;5037198;28;20005;-66
2024/01/02 13:58:20;;;;;;;17.02;8.05;;;;;;;;;;5037125;28;20045;-67
2024/01/02 14:00:46;;;;;;;15.63;7.38;;;;;;;;;;5036883;28;20104;-67
2024/01/02 14:03:15;;;;;;;7.40;3.53;;;;;;;;;;5037118;28;20410;-67
2024/01/02 14:05:44;;;;;;;9.30;5.05;;;;;;;;;;5035611;28;20057;-67
2024/01/02 14:08:14;;;;;;;9.50;5.28;;;;;;;;;;5035774;28;20515;-67
2024/01/02 14:10:39;;;;;;;7.70;4.07;;;;;;;;;;5036663;28;20171;-67
2024/01/02 14:13:06;;;;;;;7.03;4.25;;;;;;;;;;5036683;28;20573;-67
2024/01/02 14:15:36;;;;;;;6.72;4.57;;;;;;;;;;5035320;28;20124;-67
2024/01/02 14:18:06;;;;;;;8.20;5.47;;;;;;;;;;5036591;28;20038;-67
2024/01/02 14:20:40;;;;;;;4.75;4.07;;;;;;;;;;5037013;28;20401;-67
2024/01/02 14:23:08;;;;;;;9.68;5.88;;;;;;;;;;5036950;28;20029;-67
2024/01/02 14:25:34;;;;;;;15.68;8.98;;;;;;;;;;5019036;28;20083;-67
2024/01/02 14:27:59;;;;;;;14.75;9.10;;;;;;;;;;5036216;28;20029;-67
2024/01/02 14:30:35;;;;;;;14.93;9.65;;;;;;;;;;5036565;28;20021;-67
2024/01/02 14:33:01;;;;;;;7.38;5.10;;;;;;;;;;5036491;28;20021;-67
2024/01/02 14:35:30;;;;;;;8.32;5.18;;;;;;;;;;5018590;28;20360;-67
2024/01/02 14:38:16;;;;;;;3.70;2.85;;;;;;;;;;5036442;28;20026;-67
2024/01/02 14:40:42;;;;;;;5.93;2.70;;;;;;;;;;4995997;28;20042;-67
2024/01/02 14:43:22;;;;;;;3.92;3.03;;;;;;;;;;5001964;28;20022;-67